Impacts TAF Board INFO
FOR SITUATIONAL AWARENESS. NOT TO BE USED FOR FLIGHT PLANNING PURPOSES.
IDs:

KMEM - Memphis Intl, TN, US

Issued at 2100 UTC 13 Dec 2017
Updated at 2235 UTC 13 Dec 2017
Potential Impact None Slight Moderate High
Time2154Z 13/23Z 14/00Z 14/01Z 14/02Z 14/03Z 14/04Z 14/05Z 14/06Z 14/07Z 14/08Z 14/09Z 14/10Z 14/11Z>>
Type OBS PRVL PRVL PRVL PRVL PRVL PRVL PRVL PRVL PRVL PRVL PRVL PRVL PRVL
VIS 10 >6 >6 >6 >6 >6 >6 >6 >6 >6 >6 >6 >6 >6
CIG -- 250 -- -- -- -- -- -- -- -- -- -- -- --
Cover SCT BKN SCT SCT SCT SCT SCT SCT SKC SKC SKC SKC SKC SKC
FltCat VFR VFR VFR VFR VFR VFR VFR VFR VFR VFR VFR VFR VFR VFR
WX -- -- -- -- -- -- -- -- -- -- -- -- -- --
WDir 220 220 240 240 240 240 240 240 320 320 320 360 360 360
WSpd 10 15 7 7 7 7 7 7 6 6 6 8 8 8
WGst 21 25 -- -- -- -- -- -- -- -- -- -- -- --

Raw TAF
KMEM 132100Z 1321/1424 22015G25KT P6SM SCT150 BKN250
  FM140000 24007KT P6SM SCT250
  FM140600 32006KT P6SM SKC
  FM140900 36008KT P6SM SKC
  FM141300 02010KT P6SM SCT030 BKN120 BKN250
  FM141800 01007KT P6SM SCT040 BKN070


Raw METAR
KMEM 132154Z 22010G21KT 10SM FEW150 SCT250 14/M04 A2980 RMK AO2 PK WND 22026/2109 SLP090 T01441044
KMEM 132054Z 22013G23KT 10SM FEW150 FEW250 14/M04 A2979 RMK AO2 PK WND 23026/2018 SLP089 T01391039 56031
KMEM 131954Z 21016G24KT 10SM CLR 13/M03 A2981 RMK AO2 PK WND 20029/1943 SLP096 T01331028

METAR Board
Radar Display
Forecast Discussion

FOR SITUATIONAL AWARENESS. NOT TO BE USED FOR FLIGHT PLANNING PURPOSES.